Latest Weather Observations for Ben Nevis

IDV60801

Issued at 5:22 pm EST Sunday 18 August 2019 (issued every 10 minutes, with the page automatically refreshed every 10 minutes)

About weather observations | Map of weather stations | Latest weather observations for VIC | Other Formats
Station Details ID: 079101 Name: BEN NEVIS Lat: -37.23 Lon: 143.20 Height: 875.0 m
Data from the previous 72 hours. | See also: Recent months at Ben Nevis
Date/Time
EST
Temp
°C
App
Temp
°C
Dew
Point
°C
Rel
Hum
%
Delta-T
°C
Wind Press
QNH
hPa
Press
MSL
hPa
Rain since
9am
mm
Dir  Spd
km/h
Gust
km/h
Spd
kts
Gust
kts
18/05:00pm 3.5 -0.9 2.8 95 0.3 NNW 15 33 8 18 - - 0.2
18/04:30pm 4.0 -0.2 3.7 98 0.1 NE 15 32 8 17 - - 0.2
18/04:00pm 4.6 0.5 4.3 98 0.1 N 15 37 8 20 - - 0.2
18/03:30pm 4.7 0.6 4.4 98 0.1 N 15 35 8 19 - - 0.2
18/03:00pm 4.7 0.2 4.4 98 0.1 N 17 37 9 20 - - 0.2
18/02:30pm 5.8 0.3 5.7 99 0.0 NNW 24 43 13 23 - - 0.2
18/02:00pm 5.4 0.2 5.3 99 0.0 NNW 22 37 12 20 - - 0.2
18/01:30pm 5.1 0.1 4.8 98 0.1 NNW 20 35 11 19 - - 0.2
18/01:00pm 5.1 0.1 4.8 98 0.1 NNW 20 37 11 20 - - 0.2
18/12:30pm 4.9 -0.2 4.3 96 0.3 NNW 20 33 11 18 - - 0.2
18/12:00pm 5.1 0.2 4.1 93 0.4 NNW 19 30 10 16 - - 0.2
18/11:30am 5.8 2.0 3.8 87 0.9 N 13 28 7 15 - - 0.2
18/11:00am 6.5 2.7 3.8 83 1.2 NNW 13 20 7 11 - - 0.2
18/10:30am 6.6 2.8 3.9 83 1.2 NNW 13 26 7 14 - - 0.2
18/10:00am 6.8 3.3 3.4 79 1.5 N 11 22 6 12 - - 0.2
18/09:30am 7.3 2.5 2.8 73 2.0 N 17 35 9 19 - - 0.0
18/09:00am 7.6 1.4 1.9 67 2.5 N 24 54 13 29 - - 0.2
18/08:30am 7.7 1.0 1.3 64 2.7 N 26 52 14 28 - - 0.2
18/08:00am 7.9 -0.2 1.1 62 2.9 N 33 57 18 31 - - 0.2
18/07:30am 7.9 -1.4 0.6 60 3.1 N 39 72 21 39 - - 0.2
18/07:00am 9.1 -1.6 0.0 53 3.8 N 46 74 25 40 - - 0.2
18/06:30am 9.3 -1.0 0.5 54 3.8 N 44 76 24 41 - - 0.2
18/06:00am 10.4 -0.5 1.5 54 3.9 N 48 70 26 38 - - 0.2
18/05:30am 9.5 -1.7 2.1 60 3.3 NNE 50 76 27 41 - - 0.2
18/05:00am 9.4 -0.9 2.5 62 3.1 NNE 46 76 25 41 - - 0.2
18/04:30am 9.5 -0.8 2.8 63 3.0 NNE 46 65 25 35 - - 0.2
18/04:00am 9.0 -0.7 2.8 65 2.8 N 43 70 23 38 - - 0.2
18/03:30am 9.2 0.3 3.2 66 2.7 N 39 63 21 34 - - 0.2
18/03:00am 8.0 -0.6 2.5 68 2.4 N 37 59 20 32 - - 0.2
18/02:30am 7.9 0.1 2.6 69 2.3 N 33 56 18 30 - - 0.2
18/02:00am 7.8 -0.4 2.5 69 2.3 N 35 56 19 30 - - 0.2
18/01:30am 7.3 -1.1 1.8 68 2.4 N 35 54 19 29 - - 0.2
18/01:00am 6.9 -2.0 0.8 65 2.6 N 37 59 20 32 - - 0.2
18/12:30am 6.7 -1.8 1.2 68 2.3 N 35 56 19 30 - - 0.2
18/12:00am 6.3 -1.6 1.2 70 2.1 NNE 32 50 17 27 - - 0.2
 
Date/Time
EST
Temp
°C
App
Temp
°C
Dew
Point
°C
Rel
Hum
%
Delta-T
°C
Wind Press
QNH
hPa
Press
MSL
hPa
Rain since
9am
mm
Dir  Spd
km/h
Gust
km/h
Spd
kts
Gust
kts
17/11:32pm 6.2 -0.9 1.3 71 2.1 NNE 28 46 15 25 - - 0.2
17/11:30pm 6.3 -1.2 1.4 71 2.1 NNE 30 46 16 25 - - 0.2
17/11:00pm 5.7 -1.4 1.1 72 1.9 N 28 50 15 27 - - 0.2
17/10:30pm 5.5 -2.6 0.9 72 1.9 N 33 56 18 30 - - 0.2
17/10:00pm 4.9 -2.6 1.4 78 1.5 N 30 52 16 28 - - 0.2
17/09:30pm 5.2 -2.7 0.8 73 1.8 NNE 32 50 17 27 - - 0.2
17/09:00pm 4.5 -2.9 2.0 84 1.1 N 30 50 16 27 - - 0.2
17/08:57pm 4.6 -3.1 2.3 85 1.0 NNE 32 50 17 27 - - 0.2
17/08:30pm 5.0 -1.5 0.0 70 2.0 NNE 24 39 13 21 - - 0.2
17/08:00pm 5.0 -1.5 0.4 72 1.9 NNE 24 35 13 19 - - 0.2
17/07:30pm 5.4 -0.6 1.1 74 1.8 NNE 22 37 12 20 - - 0.2
17/07:00pm 5.0 -0.4 2.2 82 1.2 NNE 20 32 11 17 - - 0.2
17/06:30pm 4.7 0.2 2.4 85 1.0 NNE 15 24 8 13 - - 0.2
17/06:00pm 5.2 1.0 1.7 78 1.5 N 13 28 7 15 - - 0.2
17/05:30pm 6.2 1.6 1.7 73 1.9 N 15 26 8 14 - - 0.2
17/05:00pm 6.8 3.0 1.9 71 2.1 NNE 11 20 6 11 - - 0.2
17/04:30pm 7.1 3.4 2.6 73 2.0 N 11 17 6 9 - - 0.2
17/04:00pm 8.0 4.0 3.1 71 2.2 N 13 20 7 11 - - 0.2
17/03:30pm 8.7 4.7 2.9 67 2.6 N 13 24 7 13 - - 0.2
17/03:00pm 10.1 6.2 3.4 63 3.1 N 13 20 7 11 - - 0.2
17/02:30pm 10.2 5.9 1.3 54 3.9 NNW 13 26 7 14 - - 0.2
17/02:00pm 10.6 6.6 2.9 59 3.5 N 13 22 7 12 - - 0.2
17/01:30pm 9.1 5.1 3.1 66 2.7 NNE 13 20 7 11 - - 0.2
17/01:00pm 8.6 4.6 3.0 68 2.5 NE 13 20 7 11 - - 0.2
17/12:30pm 9.1 5.7 2.0 61 3.1 NNE 9 15 5 8 - - 0.2
17/12:00pm 7.3 3.6 2.6 72 2.1 ENE 11 15 6 8 - - 0.0
17/11:30am 6.8 2.3 1.9 71 2.1 ENE 15 22 8 12 - - 0.0
17/11:00am 7.3 3.2 2.4 71 2.1 NE 13 19 7 10 - - 0.0
17/10:30am 5.8 1.8 3.0 82 1.2 NE 13 22 7 12 - - 0.0
17/10:00am 5.0 0.5 2.0 81 1.3 ENE 15 24 8 13 - - 0.0
17/09:30am 3.8 -1.6 1.5 85 1.0 E 19 26 10 14 - - 0.0
17/09:00am 2.7 -2.9 1.1 89 0.6 E 20 30 11 16 - - 0.6
17/08:30am 2.3 -3.2 0.7 89 0.6 E 19 28 10 15 - - 0.4
17/08:00am 2.0 -3.7 0.7 91 0.5 ESE 20 28 11 15 - - 0.0
17/07:30am 1.6 -4.5 0.7 94 0.4 ESE 22 30 12 16 - - 0.0
17/07:00am 1.4 -1.7 -0.1 90 0.6 SE 6 9 3 5 - - 0.0
17/06:30am 1.4 -1.9 0.1 91 0.5 SE 7 9 4 5 - - 0.0
17/06:00am 1.3 -1.9 0.6 95 0.3 SE 7 9 4 5 - - 0.0
17/05:30am 1.7 -1.4 0.1 89 0.6 SE 6 9 3 5 - - 0.0
17/05:00am 1.3 -2.0 0.3 93 0.4 SE 7 11 4 6 - - 0.0
17/04:30am 1.3 -2.3 0.7 96 0.2 SSE 9 13 5 7 - - 0.0
17/04:00am 1.4 -2.9 1.0 97 0.2 S 13 17 7 9 - - 0.0
17/03:30am 1.5 -3.2 1.1 97 0.2 S 15 20 8 11 - - 0.0
17/03:00am 1.6 -2.7 1.3 98 0.1 S 13 20 7 11 - - 0.0
17/02:30am 1.8 -4.5 1.7 99 0.0 S 24 33 13 18 - - 0.0
17/02:00am 1.8 -3.1 1.7 99 0.0 S 17 26 9 14 - - 0.0
17/01:30am 2.6 -2.2 2.5 99 0.0 S 17 28 9 15 - - 0.0
17/01:00am 2.7 -1.7 2.6 99 0.0 S 15 24 8 13 - - 0.0
17/12:30am 2.7 -1.0 2.6 99 0.0 S 11 22 6 12 - - 0.0
17/12:00am 2.6 -2.2 2.5 99 0.0 S 17 24 9 13 - - 0.0
 
Date/Time
EST
Temp
°C
App
Temp
°C
Dew
Point
°C
Rel
Hum
%
Delta-T
°C
Wind Press
QNH
hPa
Press
MSL
hPa
Rain since
9am
mm
Dir  Spd
km/h
Gust
km/h
Spd
kts
Gust
kts
16/11:30pm 2.5 -2.0 2.4 99 0.0 S 15 24 8 13 - - 0.0
16/11:00pm 2.7 -2.7 2.6 99 0.0 SSW 20 33 11 18 - - 0.0
16/10:30pm 2.6 -2.8 2.5 99 0.0 S 20 37 11 20 - - 0.0
16/10:00pm 2.6 -3.5 2.5 99 0.0 SSW 24 39 13 21 - - 0.0
16/09:30pm 2.6 -3.9 2.5 99 0.0 S 26 39 14 21 - - 0.0
16/09:02pm 2.9 -4.9 2.8 99 0.0 S 33 52 18 28 - - 0.0
16/09:00pm 3.0 -5.2 2.9 99 0.0 S 35 52 19 28 - - 0.0
16/08:48pm 2.9 -5.3 2.8 99 0.0 S 35 54 19 29 - - 0.0
16/08:30pm 2.9 -4.7 2.6 98 0.1 S 32 43 17 23 - - 0.0
16/08:00pm 2.7 -4.6 2.4 98 0.1 SSW 30 41 16 22 - - 0.0
16/07:30pm 3.3 -3.5 3.0 98 0.1 SSW 28 41 15 22 - - 0.0
16/07:00pm 3.2 -2.9 2.9 98 0.1 SSW 24 37 13 20 - - 0.0
16/06:30pm 3.5 -1.8 3.1 97 0.2 SSW 20 33 11 18 - - 0.0
16/06:00pm 3.8 -1.5 3.2 96 0.3 SSW 20 33 11 18 - - 0.0
16/05:30pm 4.0 -2.4 3.1 94 0.4 SSW 26 43 14 23 - - 0.0
16/05:00pm 5.5 0.5 4.8 95 0.3 SW 20 43 11 23 - - 0.0
16/04:42pm 5.1 -1.4 4.5 96 0.3 SW 28 46 15 25 - - 0.0
16/04:30pm 5.1 -1.0 4.7 97 0.2 SW 26 39 14 21 - - 0.0
16/04:14pm 5.3 -1.1 5.0 98 0.1 SW 28 46 15 25 - - 0.0
16/04:00pm 5.0 -1.5 4.7 98 0.1 SW 28 44 15 24 - - 0.0
16/03:43pm 5.4 -1.4 5.3 99 0.0 SW 30 57 16 31 - - 0.0
16/03:30pm 5.6 -1.5 5.5 99 0.0 SW 32 46 17 25 - - 0.0
16/03:03pm 5.5 -1.6 5.4 99 0.0 SW 32 57 17 31 - - 0.0
16/03:00pm 5.6 -1.1 5.5 99 0.0 SW 30 46 16 25 - - 0.0
16/02:42pm 5.3 -1.5 5.0 98 0.1 SW 30 50 16 27 - - 0.0
16/02:30pm 5.7 -0.7 5.4 98 0.1 SW 28 44 15 24 - - 0.0
16/02:13pm 6.0 -0.3 5.7 98 0.1 SW 28 46 15 25 - - 0.0
16/02:00pm 6.1 0.2 5.8 98 0.1 SW 26 43 14 23 - - 0.0
16/01:30pm 6.1 0.6 5.8 98 0.1 SW 24 44 13 24 - - 0.0
16/01:00pm 6.4 1.3 6.0 97 0.2 SW 22 35 12 19 - - 0.0
16/12:30pm 7.0 3.6 5.8 92 0.6 W 13 24 7 13 - - 0.0
16/12:00pm 8.5 5.6 4.9 78 1.7 NW 9 17 5 9 - - 0.0
16/11:30am 11.4 8.3 5.7 68 2.8 WNW 11 20 6 11 - - 0.0
16/11:00am 10.9 7.5 4.1 63 3.2 NNW 11 20 6 11 - - 0.0
16/10:30am 8.7 5.2 3.5 70 2.4 NNW 11 22 6 12 - - 0.0
16/10:00am 8.2 4.4 2.0 65 2.7 NNW 11 19 6 10 - - 0.0
16/09:30am 6.2 2.2 0.7 68 2.3 NNW 11 20 6 11 - - 0.0
16/09:00am 5.9 1.9 0.3 67 2.3 NNW 11 26 6 14 - - 0.0
16/08:30am 5.8 1.3 -0.5 64 2.5 NNW 13 26 7 14 - - 0.0
16/08:00am 6.1 0.8 -0.8 61 2.8 NNW 17 30 9 16 - - 0.0
16/07:30am 6.5 0.5 -1.6 56 3.2 N 20 39 11 21 - - 0.0
16/07:00am 6.8 0.8 -1.8 54 3.4 N 20 33 11 18 - - 0.0
16/06:30am 6.9 0.5 -1.5 55 3.3 NNW 22 43 12 23 - - 0.0
16/06:00am 6.9 0.2 -1.3 56 3.3 NNW 24 39 13 21 - - 0.0
16/05:30am 7.7 1.2 -2.3 49 3.9 NNW 22 41 12 22 - - 0.0
16/05:00am 8.0 1.5 -2.3 48 4.1 N 22 43 12 23 - - 0.0
16/04:30am 8.3 1.8 -2.3 47 4.2 N 22 35 12 19 - - 0.0
16/04:00am 8.0 1.6 -1.5 51 3.8 N 22 39 12 21 - - 0.0
16/03:30am 8.6 1.6 -3.3 43 4.6 NNW 24 43 13 23 - - 0.0
16/03:09am 8.9 1.1 -3.6 41 4.8 NNW 28 48 15 26 - - 0.0
16/03:00am 8.8 1.4 -3.7 41 4.8 N 26 43 14 23 - - 0.0
16/02:30am 9.0 1.3 -3.2 42 4.8 NNW 28 48 15 26 - - 0.0
16/02:28am 9.0 1.3 -3.2 42 4.8 NNW 28 48 15 26 - - 0.0
16/02:00am 9.2 2.3 -3.0 42 4.8 N 24 43 13 23 - - 0.0
16/01:30am 8.7 1.4 -2.9 44 4.5 N 26 43 14 23 - - 0.0
16/01:00am 8.5 0.5 -2.4 46 4.3 N 30 57 16 31 - - 0.0
16/12:30am 8.7 0.7 -2.6 45 4.5 N 30 50 16 27 - - 0.0
16/12:00am 8.9 0.3 -2.7 44 4.6 N 33 59 18 32 - - 0.0
 
Date/Time
EST
Temp
°C
App
Temp
°C
Dew
Point
°C
Rel
Hum
%
Delta-T
°C
Wind Press
QNH
hPa
Press
MSL
hPa
Rain since
9am
mm
Dir  Spd
km/h
Gust
km/h
Spd
kts
Gust
kts
15/11:30pm 8.7 0.7 -2.0 47 4.3 N 30 59 16 32 - - 0.0
15/11:00pm 8.9 0.7 -1.2 49 4.1 N 32 54 17 29 - - 0.0
15/10:30pm 8.7 0.9 -1.1 50 4.0 N 30 50 16 27 - - 0.0
15/10:02pm 8.6 0.7 -1.5 49 4.1 N 30 48 16 26 - - 0.0
15/10:00pm 8.6 0.7 -1.2 50 4.0 N 30 44 16 24 - - 0.0
15/09:30pm 8.9 1.0 -1.2 49 4.1 N 30 57 16 31 - - 0.0
15/09:13pm 9.0 1.5 -1.1 49 4.1 N 28 46 15 25 - - 0.0
15/09:00pm 9.0 1.9 -1.1 49 4.1 N 26 44 14 24 - - 0.0
15/08:30pm 8.9 1.1 -0.7 51 4.0 N 30 50 16 27 - - 0.0
15/08:00pm 8.8 1.5 0.0 54 3.7 N 28 56 15 30 - - 0.0
15/07:38pm 8.7 1.5 0.9 58 3.3 N 28 46 15 25 - - 0.0
15/07:30pm 8.7 2.0 1.4 60 3.2 N 26 43 14 23 - - 0.0
15/07:00pm 8.5 2.8 2.7 67 2.6 N 22 39 12 21 - - 0.0
15/06:30pm 8.5 2.9 3.4 70 2.3 N 22 39 12 21 - - 0.0
15/06:00pm 8.3 2.9 4.3 76 1.8 N 22 39 12 21 - - 0.0
15/05:30pm 8.3 3.2 4.1 75 1.9 N 20 33 11 18 - - 0.0

Other formats

Comma delimited format used in spreadsheet applications
http://www.bom.gov.au/fwo/IDV60801/IDV60801.94835.axf

JavaScript Object Notation format (JSON) in row-major order
http://www.bom.gov.au/fwo/IDV60801/IDV60801.94835.json

Data quality

Most of these data are generated automatically and are frequently updated. Quality checks on data are not normally performed. It is possible for incorrect values to appear. Refer to information at About Latest Weather Observations and please check the disclaimer before using these data.